Decoded Metar for KMCJ ( in _UNIDENTIFIED) (IATA:N/A) | Meteo·Mobile Aviation Weather
aviador You're here:

KMCJ Decoded Metar

in _UNIDENTIFIED
Report Time2019-05-21 10:35:00
UTC Time2019-05-21 10:42:49
Flight Rules mvfr MVFR
WindVRB at 06 Gusting to 11 kt
Visibility9999 m
Phenomena:N/A
Clouds:Broken 018 Hf
Broken 024 Hf
Expected CloudBase > 1,600 ft AGL from Temp-Dew spread
Ceiling1,800 ft
Temp26°C (ISA +11)
Dew Point22°C (79% RH)
QNH1004 hPa
Density Alt2,201 ft
Elevation226 ft
Report Wrong Elevation
Raw Report
KMCJ 211035Z AUTO VRB06G11KT 7SM BKN018 BKN024 26/22 A2966 RMK
A01=

Extra information for KMCJ:More info

Metar Taf Metar & Taf Last 4 Metars F.Rules Stats Wind Profile Meteogram Temp Stats Metar ALERT Operation Metar Decoded Social comments